createdAt,value
2022-08-28T00:00:02.827Z,16.10
2022-08-28T00:02:35.782Z,16.10
2022-08-28T00:05:10.226Z,16.00
2022-08-28T00:07:47.099Z,16.00
2022-08-28T00:10:18.235Z,16.00
2022-08-28T00:12:51.879Z,16.00
2022-08-28T00:15:30.611Z,16.00
2022-08-28T00:18:05.513Z,16.00
2022-08-28T00:20:43.546Z,16.00
2022-08-28T00:23:16.535Z,16.00
2022-08-28T00:25:49.481Z,16.10
2022-08-28T00:28:24.134Z,16.10
2022-08-28T00:31:04.644Z,16.20
2022-08-28T00:33:43.051Z,16.20
2022-08-28T00:36:16.118Z,16.20
2022-08-28T00:38:49.059Z,16.30
2022-08-28T00:41:24.733Z,16.30
2022-08-28T00:43:58.440Z,16.40
2022-08-28T00:46:32.696Z,16.40
2022-08-28T00:49:05.594Z,16.40
2022-08-28T00:52:03.320Z,16.40
2022-08-28T00:54:38.011Z,16.50
2022-08-28T00:57:12.526Z,16.50
2022-08-28T00:59:45.594Z,16.40
2022-08-28T01:02:19.600Z,16.40
2022-08-28T01:04:57.393Z,16.40
2022-08-28T01:07:34.572Z,16.30
2022-08-28T01:10:09.422Z,16.30
2022-08-28T01:12:42.642Z,16.30
2022-08-28T01:15:18.759Z,16.30
2022-08-28T01:18:03.564Z,16.30
2022-08-28T01:20:36.478Z,16.30
2022-08-28T01:23:27.893Z,16.30
2022-08-28T01:26:02.249Z,16.30
2022-08-28T01:28:36.853Z,16.30
2022-08-28T01:31:11.656Z,16.30
2022-08-28T01:33:45.405Z,16.40
2022-08-28T01:36:18.794Z,16.40
2022-08-28T01:38:53.477Z,16.40
2022-08-28T01:41:26.418Z,16.40
2022-08-28T01:43:59.461Z,16.40
2022-08-28T01:46:40.609Z,16.50
2022-08-28T01:49:13.233Z,16.50
2022-08-28T01:51:46.742Z,16.50
2022-08-28T01:54:20.727Z,16.50
2022-08-28T01:56:53.767Z,16.50
2022-08-28T01:59:26.623Z,16.50
2022-08-28T02:01:59.685Z,16.50
2022-08-28T02:04:32.623Z,16.60
2022-08-28T02:07:05.449Z,16.60
2022-08-28T02:09:38.252Z,16.50
2022-08-28T02:12:15.252Z,16.50
2022-08-28T02:14:47.966Z,16.50
2022-08-28T02:17:20.833Z,16.50
2022-08-28T02:19:54.109Z,16.50
2022-08-28T02:22:26.942Z,16.40
2022-08-28T02:24:59.667Z,16.40
2022-08-28T02:27:32.869Z,16.50
2022-08-28T02:30:05.861Z,16.50
2022-08-28T02:32:39.520Z,16.50
2022-08-28T02:35:13.769Z,16.50
2022-08-28T02:37:51.949Z,16.50
2022-08-28T02:40:27.462Z,16.40
2022-08-28T02:43:00.389Z,16.40
2022-08-28T02:45:33.273Z,16.40
2022-08-28T02:48:14.660Z,16.40
2022-08-28T02:50:40.398Z,16.40
2022-08-28T02:53:14.198Z,16.40
2022-08-28T02:55:47.179Z,16.40
2022-08-28T02:58:20.183Z,16.40
2022-08-28T03:00:53.044Z,16.40
2022-08-28T03:03:25.801Z,16.40
2022-08-28T03:05:58.645Z,16.40
2022-08-28T03:08:31.932Z,16.40
2022-08-28T03:11:05.000Z,16.50
2022-08-28T03:13:37.804Z,16.40
2022-08-28T03:16:10.563Z,16.40
2022-08-28T03:18:43.361Z,16.40
2022-08-28T03:21:16.501Z,16.40
2022-08-28T03:23:49.360Z,16.40
2022-08-28T03:26:24.016Z,16.40
2022-08-28T03:28:59.779Z,16.40
2022-08-28T03:31:34.545Z,16.40
2022-08-28T03:34:09.461Z,16.30
2022-08-28T03:36:42.231Z,16.30
2022-08-28T03:39:15.635Z,16.30
2022-08-28T03:41:48.479Z,16.30
2022-08-28T03:44:25.299Z,16.30
2022-08-28T03:47:02.281Z,16.30
2022-08-28T03:49:37.983Z,16.30
2022-08-28T03:52:10.993Z,16.30
2022-08-28T03:54:43.900Z,16.20
2022-08-28T03:57:18.278Z,16.20
2022-08-28T03:59:52.433Z,16.20
2022-08-28T04:02:25.236Z,16.20
2022-08-28T04:04:58.644Z,16.20
2022-08-28T04:07:31.384Z,16.20
2022-08-28T04:10:04.304Z,16.20
2022-08-28T04:12:37.869Z,16.20
2022-08-28T04:15:15.584Z,16.20
2022-08-28T04:17:48.357Z,16.10
2022-08-28T04:20:26.477Z,16.10
2022-08-28T04:23:00.398Z,16.10
2022-08-28T04:25:33.470Z,16.10
2022-08-28T04:28:06.380Z,16.10
2022-08-28T04:30:39.110Z,16.10
2022-08-28T04:33:12.807Z,16.10
2022-08-28T04:35:50.237Z,16.10
2022-08-28T04:38:27.312Z,16.00
2022-08-28T04:41:00.404Z,16.00
2022-08-28T04:43:33.533Z,16.00
2022-08-28T04:46:11.369Z,16.00
2022-08-28T04:48:47.754Z,16.00
2022-08-28T04:51:24.652Z,16.00
2022-08-28T04:53:57.626Z,15.90
2022-08-28T04:56:35.008Z,15.90
2022-08-28T04:59:08.740Z,15.90
2022-08-28T05:01:42.975Z,15.90
2022-08-28T05:04:16.138Z,15.90
2022-08-28T05:06:49.496Z,15.90
2022-08-28T05:09:23.666Z,15.90
2022-08-28T05:11:56.564Z,15.80
2022-08-28T05:14:29.395Z,15.80
2022-08-28T05:17:02.210Z,15.80
2022-08-28T05:19:36.101Z,15.80
2022-08-28T05:22:09.120Z,15.80
2022-08-28T05:24:45.766Z,15.70
2022-08-28T05:27:18.618Z,15.70
2022-08-28T05:29:52.511Z,15.70
2022-08-28T05:32:25.419Z,15.70
2022-08-28T05:34:58.680Z,15.60
2022-08-28T05:37:32.315Z,15.60
2022-08-28T05:40:05.214Z,15.60
2022-08-28T05:42:39.140Z,15.60
2022-08-28T05:45:13.554Z,15.60
2022-08-28T05:47:46.739Z,15.60
2022-08-28T05:50:19.744Z,15.60
2022-08-28T05:52:52.729Z,15.60
2022-08-28T05:55:25.403Z,15.60
2022-08-28T05:57:59.606Z,15.50
2022-08-28T06:00:32.543Z,15.50
2022-08-28T06:03:05.491Z,15.50
2022-08-28T06:05:38.535Z,15.50
2022-08-28T06:08:11.532Z,15.50
2022-08-28T06:10:51.000Z,15.40
2022-08-28T06:13:23.930Z,15.40
2022-08-28T06:15:56.906Z,15.40
2022-08-28T06:18:30.316Z,15.40
2022-08-28T06:21:05.894Z,15.50
2022-08-28T06:23:38.954Z,15.50
2022-08-28T06:26:16.293Z,15.50
2022-08-28T06:28:49.404Z,15.50
2022-08-28T06:31:24.768Z,15.50
2022-08-28T06:33:57.363Z,15.50
2022-08-28T06:36:31.710Z,15.50
2022-08-28T06:39:06.177Z,15.50
2022-08-28T06:41:40.782Z,15.50
2022-08-28T06:44:15.281Z,15.50
2022-08-28T06:46:48.208Z,15.50
2022-08-28T06:49:23.761Z,15.50
2022-08-28T06:51:57.808Z,15.50
2022-08-28T06:54:35.937Z,15.40
2022-08-28T06:57:09.653Z,15.50
2022-08-28T06:59:46.826Z,15.50
2022-08-28T07:02:20.722Z,15.50
2022-08-28T07:04:58.236Z,15.40
2022-08-28T07:07:31.767Z,15.40
2022-08-28T07:10:05.266Z,15.40
2022-08-28T07:12:38.332Z,15.40
2022-08-28T07:15:12.259Z,15.40
2022-08-28T07:17:49.761Z,15.40
2022-08-28T07:20:22.885Z,15.40
2022-08-28T07:22:59.431Z,15.40
2022-08-28T07:25:31.289Z,15.40
2022-08-28T07:28:04.729Z,15.40
2022-08-28T07:30:41.955Z,15.40
2022-08-28T07:33:15.077Z,15.40
2022-08-28T07:35:52.280Z,15.40
2022-08-28T07:38:25.701Z,15.40
2022-08-28T07:40:59.406Z,15.40
2022-08-28T07:43:50.136Z,15.40
2022-08-28T07:46:23.064Z,15.40
2022-08-28T07:49:00.482Z,15.40
2022-08-28T07:51:37.548Z,15.30
2022-08-28T07:54:17.681Z,15.40
2022-08-28T07:56:47.847Z,15.30
2022-08-28T07:59:21.055Z,15.30
2022-08-28T08:01:55.608Z,15.30
2022-08-28T08:04:28.894Z,15.40
2022-08-28T08:07:01.577Z,15.40
2022-08-28T08:09:34.550Z,15.40
2022-08-28T08:12:10.251Z,15.40
2022-08-28T08:14:43.381Z,15.40
2022-08-28T08:17:16.419Z,15.40
2022-08-28T08:19:53.623Z,15.40
2022-08-28T08:22:27.024Z,15.40
2022-08-28T08:25:03.977Z,15.30
2022-08-28T08:27:42.927Z,15.30
2022-08-28T08:30:15.116Z,15.30
2022-08-28T08:32:47.974Z,15.30
2022-08-28T08:35:20.978Z,15.30
2022-08-28T08:37:53.757Z,15.30
2022-08-28T08:40:26.861Z,15.30
2022-08-28T08:43:00.238Z,15.20
2022-08-28T08:45:34.994Z,15.20
2022-08-28T08:48:08.113Z,15.20
2022-08-28T08:50:43.448Z,15.20
2022-08-28T08:53:24.137Z,15.20
2022-08-28T08:55:58.811Z,15.20
2022-08-28T08:58:42.916Z,15.10
2022-08-28T09:01:35.738Z,15.10
2022-08-28T09:04:38.261Z,15.00
2022-08-28T09:07:40.154Z,15.00
2022-08-28T09:10:15.433Z,14.90
2022-08-28T09:13:11.616Z,14.90
2022-08-28T09:15:50.825Z,14.90
2022-08-28T09:18:33.639Z,14.90
2022-08-28T09:21:07.375Z,14.90
2022-08-28T09:23:40.239Z,14.90
2022-08-28T09:26:15.731Z,14.90
2022-08-28T09:28:52.038Z,14.90
2022-08-28T09:31:39.006Z,14.90
2022-08-28T09:34:27.088Z,14.90
2022-08-28T09:37:01.168Z,14.80
2022-08-28T09:39:45.578Z,14.80
2022-08-28T09:42:39.183Z,14.80
2022-08-28T09:45:20.528Z,14.80
2022-08-28T09:48:04.622Z,14.70
2022-08-28T09:50:39.914Z,14.70
2022-08-28T09:53:24.364Z,14.70
2022-08-28T09:55:59.036Z,14.70
2022-08-28T09:58:36.357Z,14.70
2022-08-28T10:01:26.558Z,14.70
2022-08-28T10:04:01.302Z,14.60
2022-08-28T10:06:35.827Z,14.60
2022-08-28T10:09:17.104Z,14.60
2022-08-28T10:12:09.741Z,14.60
2022-08-28T10:14:44.586Z,14.50
2022-08-28T10:17:22.079Z,14.50
2022-08-28T10:20:01.156Z,14.40
2022-08-28T10:22:42.127Z,14.40
2022-08-28T10:25:32.205Z,14.40
2022-08-28T10:28:22.222Z,14.40
2022-08-28T10:31:06.456Z,14.40
2022-08-28T10:33:53.043Z,14.40
2022-08-28T10:36:34.228Z,14.30
2022-08-28T10:39:24.833Z,14.30
2022-08-28T10:42:06.716Z,14.30
2022-08-28T10:44:42.341Z,14.30
2022-08-28T10:47:17.909Z,14.30
2022-08-28T10:49:52.356Z,14.30
2022-08-28T10:52:27.411Z,14.30
2022-08-28T10:55:08.218Z,14.30
2022-08-28T10:57:58.604Z,14.30
2022-08-28T11:00:32.387Z,14.30
2022-08-28T11:03:27.076Z,14.30
2022-08-28T11:05:53.480Z,14.30
2022-08-28T11:08:25.515Z,14.30
2022-08-28T11:11:06.598Z,14.30
2022-08-28T11:13:50.363Z,14.30
2022-08-28T11:16:40.314Z,14.30
2022-08-28T11:19:27.255Z,14.30
2022-08-28T11:22:01.903Z,14.30
2022-08-28T11:24:52.454Z,14.30
2022-08-28T11:27:34.519Z,14.30
2022-08-28T11:30:16.519Z,14.20
2022-08-28T11:33:00.337Z,14.20
2022-08-28T11:35:51.330Z,14.20
2022-08-28T11:38:43.470Z,14.10
2022-08-28T11:41:25.050Z,14.10
2022-08-28T11:44:18.780Z,14.10
2022-08-28T11:46:55.304Z,14.00
2022-08-28T11:49:39.995Z,14.00
2022-08-28T11:52:42.340Z,14.00
2022-08-28T11:55:41.423Z,13.90
2022-08-28T11:58:46.294Z,13.90
2022-08-28T12:01:21.483Z,13.80
2022-08-28T12:04:08.474Z,13.80
2022-08-28T12:06:54.624Z,13.80
2022-08-28T12:09:46.333Z,13.70
2022-08-28T12:12:30.764Z,13.70
2022-08-28T12:15:11.342Z,13.70
2022-08-28T12:17:49.661Z,13.70
2022-08-28T12:20:30.705Z,13.70
2022-08-28T12:23:22.126Z,13.60
2022-08-28T12:25:56.890Z,13.60
2022-08-28T12:28:37.641Z,13.60
2022-08-28T12:31:12.515Z,13.50
2022-08-28T12:33:57.069Z,13.50
2022-08-28T12:36:30.553Z,13.50
2022-08-28T12:39:03.903Z,13.50
2022-08-28T12:41:37.665Z,13.50
2022-08-28T12:44:11.449Z,13.50
2022-08-28T12:46:46.047Z,13.50
2022-08-28T12:49:38.574Z,13.50
2022-08-28T12:52:25.637Z,13.40
2022-08-28T12:55:00.029Z,13.40
2022-08-28T12:57:33.022Z,13.40
2022-08-28T13:00:08.101Z,13.40
2022-08-28T13:02:50.088Z,13.40
2022-08-28T13:05:40.206Z,13.40
2022-08-28T13:08:15.001Z,13.40
2022-08-28T13:10:52.017Z,13.40
2022-08-28T13:13:50.873Z,13.30
2022-08-28T13:16:40.925Z,13.30
2022-08-28T13:19:15.519Z,13.30
2022-08-28T13:21:57.672Z,13.30
2022-08-28T13:24:35.876Z,13.30
2022-08-28T13:27:19.909Z,13.30
2022-08-28T13:30:11.764Z,13.30
2022-08-28T13:32:46.166Z,13.30
2022-08-28T13:35:23.800Z,13.30
2022-08-28T13:37:58.589Z,13.30
2022-08-28T13:43:11.073Z,13.30
2022-08-28T13:45:50.694Z,13.30
2022-08-28T13:48:31.718Z,13.30
2022-08-28T13:51:19.024Z,13.30
2022-08-28T13:53:46.459Z,13.30
2022-08-28T13:56:19.791Z,13.40
2022-08-28T13:58:57.756Z,13.30
2022-08-28T14:01:42.055Z,13.40
2022-08-28T14:04:07.588Z,13.30
2022-08-28T14:06:40.411Z,13.30
2022-08-28T14:09:15.016Z,13.30
2022-08-28T14:11:48.344Z,13.30
2022-08-28T14:14:22.381Z,13.30
2022-08-28T14:16:56.960Z,13.30
2022-08-28T14:19:29.874Z,13.30
2022-08-28T14:22:03.163Z,13.30
2022-08-28T14:24:36.084Z,13.30
2022-08-28T14:27:09.007Z,13.30
2022-08-28T14:29:41.839Z,13.30
2022-08-28T14:32:14.902Z,13.30
2022-08-28T14:34:48.888Z,13.20
2022-08-28T14:37:21.857Z,13.20
2022-08-28T14:39:54.748Z,13.20
2022-08-28T14:42:28.949Z,13.20
2022-08-28T14:45:02.048Z,13.10
2022-08-28T14:47:34.792Z,13.10
2022-08-28T14:50:07.973Z,13.10
2022-08-28T14:52:45.047Z,13.10
2022-08-28T14:55:19.104Z,13.10
2022-08-28T14:57:52.044Z,13.10
2022-08-28T15:00:25.296Z,13.10
2022-08-28T15:02:59.934Z,13.10
2022-08-28T15:05:32.262Z,13.10
2022-08-28T15:08:05.151Z,13.10
2022-08-28T15:10:37.928Z,13.10
2022-08-28T15:13:11.806Z,13.00
2022-08-28T15:15:48.799Z,13.00
2022-08-28T15:18:21.487Z,13.00
2022-08-28T15:20:54.275Z,13.00
2022-08-28T15:23:27.150Z,13.00
2022-08-28T15:26:02.582Z,13.00
2022-08-28T15:28:35.246Z,12.90
2022-08-28T15:31:08.123Z,12.90
2022-08-28T15:33:45.076Z,12.90
2022-08-28T15:36:15.669Z,12.80
2022-08-28T15:39:05.905Z,12.80
2022-08-28T15:41:39.874Z,12.80
2022-08-28T15:44:15.033Z,12.80
2022-08-28T15:46:48.950Z,12.70
2022-08-28T15:49:23.871Z,12.70
2022-08-28T15:51:58.843Z,12.70
2022-08-28T15:54:31.910Z,12.60
2022-08-28T15:57:05.061Z,12.60
2022-08-28T15:59:49.422Z,12.60
2022-08-28T16:02:13.505Z,12.60
2022-08-28T16:04:46.761Z,12.60
2022-08-28T16:07:19.851Z,12.50
2022-08-28T16:09:52.993Z,12.50
2022-08-28T16:12:25.834Z,12.50
2022-08-28T16:14:59.377Z,12.50
2022-08-28T16:17:32.242Z,12.50
2022-08-28T16:20:05.833Z,12.50
2022-08-28T16:22:39.922Z,12.40
2022-08-28T16:25:19.158Z,12.40
2022-08-28T16:27:52.176Z,12.40
2022-08-28T16:30:24.978Z,12.40
2022-08-28T16:32:58.192Z,12.30
2022-08-28T16:35:31.771Z,12.30
2022-08-28T16:38:06.626Z,12.40
2022-08-28T16:40:40.030Z,12.40
2022-08-28T16:43:13.547Z,12.40
2022-08-28T16:45:52.287Z,12.40
2022-08-28T16:48:28.713Z,12.30
2022-08-28T16:51:01.665Z,12.30
2022-08-28T16:53:34.610Z,12.30
2022-08-28T16:56:07.941Z,12.30
2022-08-28T16:58:43.419Z,12.30
2022-08-28T17:01:17.771Z,12.20
2022-08-28T17:03:52.034Z,12.20
2022-08-28T17:06:27.343Z,12.20
2022-08-28T17:09:00.324Z,12.20
2022-08-28T17:11:33.705Z,12.10
2022-08-28T17:14:06.963Z,12.10
2022-08-28T17:16:40.103Z,12.10
2022-08-28T17:19:13.130Z,12.10
2022-08-28T17:22:04.364Z,12.00
2022-08-28T17:24:37.332Z,12.00
2022-08-28T17:27:10.994Z,11.90
2022-08-28T17:29:44.167Z,11.90
2022-08-28T17:32:17.217Z,11.90
2022-08-28T17:34:50.464Z,11.90
2022-08-28T17:37:23.476Z,11.90
2022-08-28T17:39:56.512Z,11.90
2022-08-28T17:42:29.560Z,11.80
2022-08-28T17:45:02.963Z,11.80
2022-08-28T17:47:36.468Z,11.80
2022-08-28T17:50:10.197Z,11.80
2022-08-28T17:52:43.152Z,11.80
2022-08-28T17:55:16.043Z,11.70
2022-08-28T17:57:48.974Z,11.70
2022-08-28T18:00:22.052Z,11.70
2022-08-28T18:02:56.286Z,11.70
2022-08-28T18:05:29.063Z,11.70
2022-08-28T18:08:01.946Z,11.60
2022-08-28T18:10:35.656Z,11.60
2022-08-28T18:13:13.228Z,11.60
2022-08-28T18:15:46.352Z,11.60
2022-08-28T18:18:20.404Z,11.50
2022-08-28T18:20:54.373Z,11.50
2022-08-28T18:23:27.321Z,11.50
2022-08-28T18:26:00.277Z,11.50
2022-08-28T18:28:34.180Z,11.50
2022-08-28T18:31:07.909Z,11.50
2022-08-28T18:33:41.317Z,11.50
2022-08-28T18:36:15.452Z,11.40
2022-08-28T18:38:52.438Z,11.40
2022-08-28T18:41:37.653Z,11.40
2022-08-28T18:44:04.632Z,11.40
2022-08-28T18:46:35.244Z,11.40
2022-08-28T18:49:08.746Z,11.40
2022-08-28T18:51:42.942Z,11.40
2022-08-28T18:54:16.735Z,11.30
2022-08-28T18:56:50.566Z,11.30
2022-08-28T18:59:23.528Z,11.30
2022-08-28T19:01:56.443Z,11.30
2022-08-28T19:04:29.322Z,11.30
2022-08-28T19:07:01.784Z,11.30
2022-08-28T19:09:35.088Z,11.30
2022-08-28T19:12:09.071Z,11.30
2022-08-28T19:14:41.914Z,11.30
2022-08-28T19:17:21.113Z,11.30
2022-08-28T19:19:57.189Z,11.30
2022-08-28T19:22:30.016Z,11.30
2022-08-28T19:25:02.831Z,11.30
2022-08-28T19:27:35.610Z,11.40
2022-08-28T19:30:13.892Z,11.40
2022-08-28T19:32:47.680Z,11.40
2022-08-28T19:35:24.123Z,11.40
2022-08-28T19:37:56.112Z,11.40
2022-08-28T19:40:29.356Z,11.50
2022-08-28T19:43:02.155Z,11.50
2022-08-28T19:45:35.047Z,11.50
2022-08-28T19:48:08.286Z,11.60
2022-08-28T19:50:41.892Z,11.60
2022-08-28T19:53:15.146Z,11.70
2022-08-28T19:55:48.163Z,11.70
2022-08-28T19:58:20.907Z,11.70
2022-08-28T20:00:54.537Z,11.70
2022-08-28T20:03:27.346Z,11.80
2022-08-28T20:06:00.824Z,11.80
2022-08-28T20:08:37.890Z,11.80
2022-08-28T20:11:11.571Z,11.90
2022-08-28T20:13:44.519Z,11.90
2022-08-28T20:16:17.364Z,12.00
2022-08-28T20:18:51.530Z,12.00
2022-08-28T20:21:36.886Z,12.00
2022-08-28T20:23:58.578Z,12.10
2022-08-28T20:26:35.403Z,12.10
2022-08-28T20:29:08.562Z,12.20
2022-08-28T20:31:43.494Z,12.20
2022-08-28T20:34:17.993Z,12.20
2022-08-28T20:36:51.265Z,12.30
2022-08-28T20:39:24.490Z,12.30
2022-08-28T20:41:58.000Z,12.40
2022-08-28T20:44:30.738Z,12.50
2022-08-28T20:47:04.030Z,12.60
2022-08-28T20:49:38.973Z,12.70
2022-08-28T20:52:11.267Z,12.70
2022-08-28T20:54:46.729Z,12.70
2022-08-28T20:57:22.939Z,12.70
2022-08-28T20:59:56.239Z,12.70
2022-08-28T21:02:31.592Z,12.80
2022-08-28T21:05:04.616Z,12.90
2022-08-28T21:07:37.398Z,13.00
2022-08-28T21:10:10.457Z,13.10
2022-08-28T21:12:43.755Z,13.10
2022-08-28T21:15:17.034Z,13.30
2022-08-28T21:17:54.065Z,13.40
2022-08-28T21:20:27.184Z,13.40
2022-08-28T21:23:02.870Z,13.50
2022-08-28T21:25:35.754Z,13.50
2022-08-28T21:28:08.848Z,13.60
2022-08-28T21:30:43.078Z,13.70
2022-08-28T21:33:16.194Z,13.80
2022-08-28T21:35:49.500Z,13.80
2022-08-28T21:38:22.824Z,13.90
2022-08-28T21:40:55.875Z,14.00
2022-08-28T21:43:33.117Z,14.00
2022-08-28T21:46:07.451Z,14.10
2022-08-28T21:48:41.221Z,14.10
2022-08-28T21:51:15.738Z,14.20
2022-08-28T21:53:49.601Z,14.20
2022-08-28T21:56:32.998Z,14.30
2022-08-28T21:59:06.478Z,14.30
2022-08-28T22:01:39.645Z,14.40
2022-08-28T22:04:12.719Z,14.40
2022-08-28T22:06:45.840Z,14.40
2022-08-28T22:09:18.814Z,14.50
2022-08-28T22:11:51.698Z,14.50
2022-08-28T22:14:25.799Z,14.50
2022-08-28T22:16:58.783Z,14.60
2022-08-28T22:19:31.959Z,14.70
2022-08-28T22:22:21.866Z,14.70
2022-08-28T22:24:55.424Z,14.70
2022-08-28T22:27:28.665Z,14.80
2022-08-28T22:30:01.654Z,14.80
2022-08-28T22:32:34.729Z,14.90
2022-08-28T22:35:07.868Z,14.90
2022-08-28T22:37:41.046Z,15.00
2022-08-28T22:40:14.692Z,15.00
2022-08-28T22:42:47.643Z,15.10
2022-08-28T22:45:21.201Z,15.10
2022-08-28T22:47:54.144Z,15.20
2022-08-28T22:50:27.627Z,15.30
2022-08-28T22:53:01.986Z,15.30
2022-08-28T22:55:37.890Z,15.40
2022-08-28T22:58:09.981Z,15.40
2022-08-28T23:00:48.282Z,15.40
2022-08-28T23:03:21.346Z,15.50
2022-08-28T23:05:55.332Z,15.50
2022-08-28T23:08:32.008Z,15.50
2022-08-28T23:11:02.653Z,15.60
2022-08-28T23:13:35.917Z,15.60
2022-08-28T23:16:09.848Z,15.70
2022-08-28T23:19:06.823Z,15.80
2022-08-28T23:21:17.171Z,15.80
2022-08-28T23:23:51.351Z,15.80
2022-08-28T23:26:24.697Z,15.80
2022-08-28T23:28:57.672Z,15.80
2022-08-28T23:31:30.793Z,15.80
2022-08-28T23:34:04.984Z,15.80
2022-08-28T23:36:39.504Z,15.80
2022-08-28T23:39:12.121Z,15.80
2022-08-28T23:41:45.101Z,15.80
2022-08-28T23:44:19.163Z,15.80
2022-08-28T23:46:52.185Z,15.80
2022-08-28T23:49:26.984Z,15.80
2022-08-28T23:51:59.526Z,15.80
2022-08-28T23:54:32.771Z,15.80
2022-08-28T23:57:05.941Z,15.80
2022-08-28T23:59:39.129Z,15.80
